sensor_id;sensor_type;location;lat;lon;timestamp;temperature;humidity
11091;DHT22;5599;52.210;21.046;2022-07-31T00:00:43;17.30;99.90
11091;DHT22;5599;52.210;21.046;2022-07-31T00:03:14;17.20;99.90
11091;DHT22;5599;52.210;21.046;2022-07-31T00:05:43;17.10;99.90
11091;DHT22;5599;52.210;21.046;2022-07-31T00:08:13;17.10;99.90
11091;DHT22;5599;52.210;21.046;2022-07-31T00:10:42;17.20;99.90
11091;DHT22;5599;52.210;21.046;2022-07-31T00:13:12;17.10;99.90
11091;DHT22;5599;52.210;21.046;2022-07-31T00:15:41;17.20;99.90
11091;DHT22;5599;52.210;21.046;2022-07-31T00:18:10;17.20;99.90
11091;DHT22;5599;52.210;21.046;2022-07-31T00:20:41;17.20;99.90
11091;DHT22;5599;52.210;21.046;2022-07-31T00:23:13;17.30;99.90
11091;DHT22;5599;52.210;21.046;2022-07-31T00:25:47;17.30;99.90
11091;DHT22;5599;52.210;21.046;2022-07-31T00:28:16;17.30;99.90
11091;DHT22;5599;52.210;21.046;2022-07-31T00:30:45;17.30;99.90
11091;DHT22;5599;52.210;21.046;2022-07-31T00:33:14;17.30;99.90
11091;DHT22;5599;52.210;21.046;2022-07-31T00:35:44;17.40;99.90
11091;DHT22;5599;52.210;21.046;2022-07-31T00:38:13;17.40;99.90
11091;DHT22;5599;52.210;21.046;2022-07-31T00:40:58;17.40;99.90
11091;DHT22;5599;52.210;21.046;2022-07-31T00:43:27;17.40;99.90
11091;DHT22;5599;52.210;21.046;2022-07-31T00:45:57;17.40;99.90
11091;DHT22;5599;52.210;21.046;2022-07-31T00:48:26;17.40;99.90
11091;DHT22;5599;52.210;21.046;2022-07-31T00:50:57;17.40;99.90
11091;DHT22;5599;52.210;21.046;2022-07-31T00:53:26;17.40;99.90
11091;DHT22;5599;52.210;21.046;2022-07-31T00:55:55;17.30;99.90
11091;DHT22;5599;52.210;21.046;2022-07-31T00:58:25;17.30;99.90
11091;DHT22;5599;52.210;21.046;2022-07-31T01:00:53;17.30;99.90
11091;DHT22;5599;52.210;21.046;2022-07-31T01:03:23;17.30;99.90
11091;DHT22;5599;52.210;21.046;2022-07-31T01:05:52;17.30;99.90
11091;DHT22;5599;52.210;21.046;2022-07-31T01:08:22;17.20;99.90
11091;DHT22;5599;52.210;21.046;2022-07-31T01:10:56;17.20;99.90
11091;DHT22;5599;52.210;21.046;2022-07-31T01:13:30;17.20;99.90
11091;DHT22;5599;52.210;21.046;2022-07-31T01:16:02;17.30;99.90
11091;DHT22;5599;52.210;21.046;2022-07-31T01:18:35;17.20;99.90
11091;DHT22;5599;52.210;21.046;2022-07-31T01:21:07;17.30;99.90
11091;DHT22;5599;52.210;21.046;2022-07-31T01:24:11;17.20;99.90
11091;DHT22;5599;52.210;21.046;2022-07-31T01:27:19;17.30;99.90
11091;DHT22;5599;52.210;21.046;2022-07-31T01:29:57;17.20;99.90
11091;DHT22;5599;52.210;21.046;2022-07-31T01:32:31;17.30;99.90
11091;DHT22;5599;52.210;21.046;2022-07-31T01:35:07;17.20;99.90
11091;DHT22;5599;52.210;21.046;2022-07-31T01:37:42;17.20;99.90
11091;DHT22;5599;52.210;21.046;2022-07-31T01:40:15;17.20;99.90
11091;DHT22;5599;52.210;21.046;2022-07-31T01:42:50;17.20;99.90
11091;DHT22;5599;52.210;21.046;2022-07-31T01:45:21;17.20;99.90
11091;DHT22;5599;52.210;21.046;2022-07-31T01:47:53;17.20;99.90
11091;DHT22;5599;52.210;21.046;2022-07-31T01:50:26;17.20;99.90
11091;DHT22;5599;52.210;21.046;2022-07-31T01:53:13;17.20;99.90
11091;DHT22;5599;52.210;21.046;2022-07-31T01:55:43;17.20;99.90
11091;DHT22;5599;52.210;21.046;2022-07-31T01:58:35;17.20;99.90
11091;DHT22;5599;52.210;21.046;2022-07-31T02:01:23;17.10;99.90
11091;DHT22;5599;52.210;21.046;2022-07-31T02:03:56;17.00;99.90
11091;DHT22;5599;52.210;21.046;2022-07-31T02:06:29;17.00;99.90
11091;DHT22;5599;52.210;21.046;2022-07-31T02:09:00;17.00;99.90
11091;DHT22;5599;52.210;21.046;2022-07-31T02:11:30;17.10;99.90
11091;DHT22;5599;52.210;21.046;2022-07-31T02:14:12;17.00;99.90
11091;DHT22;5599;52.210;21.046;2022-07-31T02:16:44;17.00;99.90
11091;DHT22;5599;52.210;21.046;2022-07-31T02:19:20;17.00;99.90
11091;DHT22;5599;52.210;21.046;2022-07-31T02:21:50;17.10;99.90
11091;DHT22;5599;52.210;21.046;2022-07-31T02:24:19;17.00;99.90
11091;DHT22;5599;52.210;21.046;2022-07-31T02:26:50;16.90;99.90
11091;DHT22;5599;52.210;21.046;2022-07-31T02:29:20;16.90;99.90
11091;DHT22;5599;52.210;21.046;2022-07-31T02:31:52;16.80;99.90
11091;DHT22;5599;52.210;21.046;2022-07-31T02:34:31;16.90;99.90
11091;DHT22;5599;52.210;21.046;2022-07-31T02:37:02;16.90;99.90
11091;DHT22;5599;52.210;21.046;2022-07-31T02:39:33;16.90;99.90
11091;DHT22;5599;52.210;21.046;2022-07-31T02:42:04;16.90;99.90
11091;DHT22;5599;52.210;21.046;2022-07-31T02:44:35;16.80;99.90
11091;DHT22;5599;52.210;21.046;2022-07-31T02:47:07;16.80;99.90
11091;DHT22;5599;52.210;21.046;2022-07-31T02:49:37;16.80;99.90
11091;DHT22;5599;52.210;21.046;2022-07-31T02:52:07;16.90;99.90
11091;DHT22;5599;52.210;21.046;2022-07-31T02:54:36;16.90;99.90
11091;DHT22;5599;52.210;21.046;2022-07-31T02:57:08;16.90;99.90
11091;DHT22;5599;52.210;21.046;2022-07-31T02:59:38;16.90;99.90
11091;DHT22;5599;52.210;21.046;2022-07-31T03:02:09;16.90;99.90
11091;DHT22;5599;52.210;21.046;2022-07-31T03:04:42;16.90;99.90
11091;DHT22;5599;52.210;21.046;2022-07-31T03:07:11;16.90;99.90
11091;DHT22;5599;52.210;21.046;2022-07-31T03:09:40;16.90;99.90
11091;DHT22;5599;52.210;21.046;2022-07-31T03:12:32;16.90;99.90
11091;DHT22;5599;52.210;21.046;2022-07-31T03:15:03;16.90;99.90
11091;DHT22;5599;52.210;21.046;2022-07-31T03:17:35;16.90;99.90
11091;DHT22;5599;52.210;21.046;2022-07-31T03:20:11;16.90;99.90
11091;DHT22;5599;52.210;21.046;2022-07-31T03:22:42;16.90;99.90
11091;DHT22;5599;52.210;21.046;2022-07-31T03:25:12;17.00;99.90
11091;DHT22;5599;52.210;21.046;2022-07-31T03:27:49;17.00;99.90
11091;DHT22;5599;52.210;21.046;2022-07-31T03:30:23;17.00;99.90
11091;DHT22;5599;52.210;21.046;2022-07-31T03:32:56;17.00;99.90
11091;DHT22;5599;52.210;21.046;2022-07-31T03:35:31;17.00;99.90
11091;DHT22;5599;52.210;21.046;2022-07-31T03:38:08;17.00;99.90
11091;DHT22;5599;52.210;21.046;2022-07-31T03:41:00;17.00;99.90
11091;DHT22;5599;52.210;21.046;2022-07-31T03:43:30;16.90;99.90
11091;DHT22;5599;52.210;21.046;2022-07-31T03:46:16;16.90;99.90
11091;DHT22;5599;52.210;21.046;2022-07-31T03:48:48;16.90;99.90
11091;DHT22;5599;52.210;21.046;2022-07-31T03:51:20;16.90;99.90
11091;DHT22;5599;52.210;21.046;2022-07-31T03:53:49;16.90;99.90
11091;DHT22;5599;52.210;21.046;2022-07-31T03:56:47;16.90;99.90
11091;DHT22;5599;52.210;21.046;2022-07-31T03:59:18;16.90;99.90
11091;DHT22;5599;52.210;21.046;2022-07-31T04:01:48;17.00;99.90
11091;DHT22;5599;52.210;21.046;2022-07-31T04:04:56;17.00;99.90
11091;DHT22;5599;52.210;21.046;2022-07-31T04:07:25;16.90;99.90
11091;DHT22;5599;52.210;21.046;2022-07-31T04:09:55;16.90;99.90
11091;DHT22;5599;52.210;21.046;2022-07-31T04:12:24;16.90;99.90
11091;DHT22;5599;52.210;21.046;2022-07-31T04:14:53;16.80;99.90
11091;DHT22;5599;52.210;21.046;2022-07-31T04:17:22;16.80;99.90
11091;DHT22;5599;52.210;21.046;2022-07-31T04:19:51;16.80;99.90
11091;DHT22;5599;52.210;21.046;2022-07-31T04:22:22;16.80;99.90
11091;DHT22;5599;52.210;21.046;2022-07-31T04:24:52;16.80;99.90
11091;DHT22;5599;52.210;21.046;2022-07-31T04:27:40;16.80;99.90
11091;DHT22;5599;52.210;21.046;2022-07-31T04:30:15;16.90;99.90
11091;DHT22;5599;52.210;21.046;2022-07-31T04:32:46;16.90;99.90
11091;DHT22;5599;52.210;21.046;2022-07-31T04:35:20;16.90;99.90
11091;DHT22;5599;52.210;21.046;2022-07-31T04:37:50;16.90;99.90
11091;DHT22;5599;52.210;21.046;2022-07-31T04:40:20;16.90;99.90
11091;DHT22;5599;52.210;21.046;2022-07-31T04:42:53;16.90;99.90
11091;DHT22;5599;52.210;21.046;2022-07-31T04:45:22;16.90;99.90
11091;DHT22;5599;52.210;21.046;2022-07-31T04:47:52;16.90;99.90
11091;DHT22;5599;52.210;21.046;2022-07-31T04:50:21;16.90;99.90
11091;DHT22;5599;52.210;21.046;2022-07-31T04:53:01;16.90;99.90
11091;DHT22;5599;52.210;21.046;2022-07-31T04:55:34;16.90;99.90
11091;DHT22;5599;52.210;21.046;2022-07-31T04:58:04;17.00;99.90
11091;DHT22;5599;52.210;21.046;2022-07-31T05:00:33;17.00;99.90
11091;DHT22;5599;52.210;21.046;2022-07-31T05:03:03;17.00;99.90
11091;DHT22;5599;52.210;21.046;2022-07-31T05:05:32;17.00;99.90
11091;DHT22;5599;52.210;21.046;2022-07-31T05:08:03;17.00;99.90
11091;DHT22;5599;52.210;21.046;2022-07-31T05:10:41;17.00;99.90
11091;DHT22;5599;52.210;21.046;2022-07-31T05:13:36;17.00;99.90
11091;DHT22;5599;52.210;21.046;2022-07-31T05:16:10;17.00;99.90
11091;DHT22;5599;52.210;21.046;2022-07-31T05:18:39;17.00;99.90
11091;DHT22;5599;52.210;21.046;2022-07-31T05:21:27;17.00;99.90
11091;DHT22;5599;52.210;21.046;2022-07-31T05:24:16;17.00;99.90
11091;DHT22;5599;52.210;21.046;2022-07-31T05:27:08;17.00;99.90
11091;DHT22;5599;52.210;21.046;2022-07-31T05:29:40;17.10;99.90
11091;DHT22;5599;52.210;21.046;2022-07-31T05:32:10;17.10;99.90
11091;DHT22;5599;52.210;21.046;2022-07-31T05:34:39;17.10;99.90
11091;DHT22;5599;52.210;21.046;2022-07-31T05:37:10;17.10;99.90
11091;DHT22;5599;52.210;21.046;2022-07-31T05:39:41;17.10;99.90
11091;DHT22;5599;52.210;21.046;2022-07-31T05:42:29;17.10;99.90
11091;DHT22;5599;52.210;21.046;2022-07-31T05:45:16;17.10;99.90
11091;DHT22;5599;52.210;21.046;2022-07-31T05:47:46;17.10;99.90
11091;DHT22;5599;52.210;21.046;2022-07-31T05:50:16;17.10;99.90
11091;DHT22;5599;52.210;21.046;2022-07-31T05:52:46;17.20;99.90
11091;DHT22;5599;52.210;21.046;2022-07-31T05:55:47;17.20;99.90
11091;DHT22;5599;52.210;21.046;2022-07-31T05:58:32;17.20;99.90
11091;DHT22;5599;52.210;21.046;2022-07-31T06:01:02;17.20;99.90
11091;DHT22;5599;52.210;21.046;2022-07-31T06:03:32;17.20;99.90
11091;DHT22;5599;52.210;21.046;2022-07-31T06:06:27;17.20;99.90
11091;DHT22;5599;52.210;21.046;2022-07-31T06:08:56;17.20;99.90
11091;DHT22;5599;52.210;21.046;2022-07-31T06:11:36;17.20;99.90
11091;DHT22;5599;52.210;21.046;2022-07-31T06:14:06;17.20;99.90
11091;DHT22;5599;52.210;21.046;2022-07-31T06:17:05;17.20;99.90
11091;DHT22;5599;52.210;21.046;2022-07-31T06:19:37;17.20;99.90
11091;DHT22;5599;52.210;21.046;2022-07-31T06:22:06;17.10;99.90
11091;DHT22;5599;52.210;21.046;2022-07-31T06:24:36;17.10;99.90
11091;DHT22;5599;52.210;21.046;2022-07-31T06:27:10;17.10;99.90
11091;DHT22;5599;52.210;21.046;2022-07-31T06:29:59;17.10;99.90
11091;DHT22;5599;52.210;21.046;2022-07-31T06:32:29;17.20;99.90
11091;DHT22;5599;52.210;21.046;2022-07-31T06:34:58;17.20;99.90
11091;DHT22;5599;52.210;21.046;2022-07-31T06:37:30;17.10;99.90
11091;DHT22;5599;52.210;21.046;2022-07-31T06:40:01;17.00;99.90
11091;DHT22;5599;52.210;21.046;2022-07-31T06:42:52;17.00;99.90
11091;DHT22;5599;52.210;21.046;2022-07-31T06:45:44;17.00;99.90
11091;DHT22;5599;52.210;21.046;2022-07-31T06:48:37;17.10;99.90
11091;DHT22;5599;52.210;21.046;2022-07-31T06:51:11;17.10;99.90
11091;DHT22;5599;52.210;21.046;2022-07-31T06:53:57;17.10;99.90
11091;DHT22;5599;52.210;21.046;2022-07-31T06:56:27;17.20;99.90
11091;DHT22;5599;52.210;21.046;2022-07-31T06:58:58;17.20;99.90
11091;DHT22;5599;52.210;21.046;2022-07-31T07:01:27;17.20;99.90
11091;DHT22;5599;52.210;21.046;2022-07-31T07:03:57;17.20;99.90
11091;DHT22;5599;52.210;21.046;2022-07-31T07:06:26;17.20;99.90
11091;DHT22;5599;52.210;21.046;2022-07-31T07:08:55;17.20;99.90
11091;DHT22;5599;52.210;21.046;2022-07-31T07:11:25;17.20;99.90
11091;DHT22;5599;52.210;21.046;2022-07-31T07:13:54;17.30;99.90
11091;DHT22;5599;52.210;21.046;2022-07-31T07:16:26;17.30;99.90
11091;DHT22;5599;52.210;21.046;2022-07-31T07:18:55;17.30;99.90
11091;DHT22;5599;52.210;21.046;2022-07-31T07:21:24;17.30;99.90
11091;DHT22;5599;52.210;21.046;2022-07-31T07:23:54;17.40;99.90
11091;DHT22;5599;52.210;21.046;2022-07-31T07:26:46;17.40;99.90
11091;DHT22;5599;52.210;21.046;2022-07-31T07:29:15;17.40;99.90
11091;DHT22;5599;52.210;21.046;2022-07-31T07:31:46;17.40;99.90
11091;DHT22;5599;52.210;21.046;2022-07-31T07:34:16;17.40;99.90
11091;DHT22;5599;52.210;21.046;2022-07-31T07:36:46;17.40;99.90
11091;DHT22;5599;52.210;21.046;2022-07-31T07:39:25;17.40;99.90
11091;DHT22;5599;52.210;21.046;2022-07-31T07:41:55;17.40;99.90
11091;DHT22;5599;52.210;21.046;2022-07-31T07:44:26;17.40;99.90
11091;DHT22;5599;52.210;21.046;2022-07-31T07:46:57;17.40;99.90
11091;DHT22;5599;52.210;21.046;2022-07-31T07:49:27;17.40;99.90
11091;DHT22;5599;52.210;21.046;2022-07-31T07:52:16;17.40;99.90
11091;DHT22;5599;52.210;21.046;2022-07-31T07:55:15;17.50;99.90
11091;DHT22;5599;52.210;21.046;2022-07-31T07:58:13;17.60;99.90
11091;DHT22;5599;52.210;21.046;2022-07-31T08:01:18;17.60;99.90
11091;DHT22;5599;52.210;21.046;2022-07-31T08:03:52;17.60;99.90
11091;DHT22;5599;52.210;21.046;2022-07-31T08:06:22;17.60;99.90
11091;DHT22;5599;52.210;21.046;2022-07-31T08:08:51;17.70;99.90
11091;DHT22;5599;52.210;21.046;2022-07-31T08:11:40;17.60;99.90
11091;DHT22;5599;52.210;21.046;2022-07-31T08:14:18;17.70;99.90
11091;DHT22;5599;52.210;21.046;2022-07-31T08:17:16;17.70;99.90
11091;DHT22;5599;52.210;21.046;2022-07-31T08:19:47;17.70;99.90
11091;DHT22;5599;52.210;21.046;2022-07-31T08:22:18;17.70;99.90
11091;DHT22;5599;52.210;21.046;2022-07-31T08:24:47;17.70;99.90
11091;DHT22;5599;52.210;21.046;2022-07-31T08:27:16;17.80;99.90
11091;DHT22;5599;52.210;21.046;2022-07-31T08:30:08;17.80;99.90
11091;DHT22;5599;52.210;21.046;2022-07-31T08:32:37;17.80;99.90
11091;DHT22;5599;52.210;21.046;2022-07-31T08:35:20;17.80;99.90
11091;DHT22;5599;52.210;21.046;2022-07-31T08:37:49;17.90;99.90
11091;DHT22;5599;52.210;21.046;2022-07-31T08:40:37;17.90;99.90
11091;DHT22;5599;52.210;21.046;2022-07-31T08:43:10;17.90;99.90
11091;DHT22;5599;52.210;21.046;2022-07-31T08:46:00;18.00;99.90
11091;DHT22;5599;52.210;21.046;2022-07-31T08:48:39;17.90;99.90
11091;DHT22;5599;52.210;21.046;2022-07-31T08:51:11;17.90;99.90
11091;DHT22;5599;52.210;21.046;2022-07-31T08:53:59;18.00;99.90
11091;DHT22;5599;52.210;21.046;2022-07-31T08:56:30;17.90;99.90
11091;DHT22;5599;52.210;21.046;2022-07-31T08:59:02;18.00;99.90
11091;DHT22;5599;52.210;21.046;2022-07-31T09:01:32;18.00;99.90
11091;DHT22;5599;52.210;21.046;2022-07-31T09:04:03;18.10;99.90
11091;DHT22;5599;52.210;21.046;2022-07-31T09:06:35;18.10;99.90
11091;DHT22;5599;52.210;21.046;2022-07-31T09:09:04;18.10;99.90
11091;DHT22;5599;52.210;21.046;2022-07-31T09:11:45;18.10;99.90
11091;DHT22;5599;52.210;21.046;2022-07-31T09:14:33;18.10;99.90
11091;DHT22;5599;52.210;21.046;2022-07-31T09:17:05;18.10;99.90
11091;DHT22;5599;52.210;21.046;2022-07-31T09:19:39;18.10;99.90
11091;DHT22;5599;52.210;21.046;2022-07-31T09:22:30;18.20;99.90
11091;DHT22;5599;52.210;21.046;2022-07-31T09:25:08;18.30;99.90
11091;DHT22;5599;52.210;21.046;2022-07-31T09:27:39;18.40;99.90
11091;DHT22;5599;52.210;21.046;2022-07-31T09:30:09;18.30;99.90
11091;DHT22;5599;52.210;21.046;2022-07-31T09:33:12;18.30;99.90
11091;DHT22;5599;52.210;21.046;2022-07-31T09:35:58;18.30;99.90
11091;DHT22;5599;52.210;21.046;2022-07-31T09:38:32;18.40;99.90
11091;DHT22;5599;52.210;21.046;2022-07-31T09:41:21;18.40;99.90
11091;DHT22;5599;52.210;21.046;2022-07-31T09:44:14;18.40;99.90
11091;DHT22;5599;52.210;21.046;2022-07-31T09:46:51;18.40;99.90
11091;DHT22;5599;52.210;21.046;2022-07-31T09:49:29;18.40;99.90
11091;DHT22;5599;52.210;21.046;2022-07-31T09:52:00;18.40;99.90
11091;DHT22;5599;52.210;21.046;2022-07-31T09:54:30;18.40;99.90
11091;DHT22;5599;52.210;21.046;2022-07-31T09:57:09;18.40;99.90
11091;DHT22;5599;52.210;21.046;2022-07-31T09:59:42;18.40;99.90
11091;DHT22;5599;52.210;21.046;2022-07-31T10:02:13;18.50;99.90
11091;DHT22;5599;52.210;21.046;2022-07-31T10:04:47;18.40;99.90
11091;DHT22;5599;52.210;21.046;2022-07-31T10:07:18;18.40;99.90
11091;DHT22;5599;52.210;21.046;2022-07-31T10:10:07;18.30;99.90
11091;DHT22;5599;52.210;21.046;2022-07-31T10:12:45;18.30;99.90
11091;DHT22;5599;52.210;21.046;2022-07-31T10:15:16;18.40;99.90
11091;DHT22;5599;52.210;21.046;2022-07-31T10:18:02;18.40;99.90
11091;DHT22;5599;52.210;21.046;2022-07-31T10:20:36;18.30;99.90
11091;DHT22;5599;52.210;21.046;2022-07-31T10:23:23;18.30;99.90
11091;DHT22;5599;52.210;21.046;2022-07-31T10:26:01;18.30;99.90
11091;DHT22;5599;52.210;21.046;2022-07-31T10:28:34;18.30;99.90
11091;DHT22;5599;52.210;21.046;2022-07-31T10:31:04;18.30;99.90
11091;DHT22;5599;52.210;21.046;2022-07-31T10:33:34;18.20;99.90
11091;DHT22;5599;52.210;21.046;2022-07-31T10:36:34;18.30;99.90
11091;DHT22;5599;52.210;21.046;2022-07-31T10:39:32;18.20;99.90
11091;DHT22;5599;52.210;21.046;2022-07-31T10:42:34;18.20;99.90
11091;DHT22;5599;52.210;21.046;2022-07-31T10:45:07;18.30;99.90
11091;DHT22;5599;52.210;21.046;2022-07-31T10:48:00;18.20;99.90
11091;DHT22;5599;52.210;21.046;2022-07-31T10:51:00;18.30;99.90
11091;DHT22;5599;52.210;21.046;2022-07-31T10:53:56;18.20;99.90
11091;DHT22;5599;52.210;21.046;2022-07-31T10:56:47;18.30;99.90
11091;DHT22;5599;52.210;21.046;2022-07-31T10:59:41;18.30;99.90
11091;DHT22;5599;52.210;21.046;2022-07-31T11:02:46;18.30;99.90
11091;DHT22;5599;52.210;21.046;2022-07-31T11:05:32;18.30;99.90
11091;DHT22;5599;52.210;21.046;2022-07-31T11:08:43;18.20;99.90
11091;DHT22;5599;52.210;21.046;2022-07-31T11:11:46;18.20;99.90
11091;DHT22;5599;52.210;21.046;2022-07-31T11:14:33;18.20;99.90
11091;DHT22;5599;52.210;21.046;2022-07-31T11:17:38;18.20;99.90
11091;DHT22;5599;52.210;21.046;2022-07-31T11:20:43;18.30;99.90
11091;DHT22;5599;52.210;21.046;2022-07-31T11:23:15;18.30;99.90
11091;DHT22;5599;52.210;21.046;2022-07-31T11:25:46;18.30;99.90
11091;DHT22;5599;52.210;21.046;2022-07-31T11:28:21;18.30;99.90
11091;DHT22;5599;52.210;21.046;2022-07-31T11:30:55;18.30;99.90
11091;DHT22;5599;52.210;21.046;2022-07-31T11:33:31;18.40;99.90
11091;DHT22;5599;52.210;21.046;2022-07-31T11:36:12;18.40;99.90
11091;DHT22;5599;52.210;21.046;2022-07-31T11:38:44;18.40;99.90
11091;DHT22;5599;52.210;21.046;2022-07-31T11:41:14;18.50;99.90
11091;DHT22;5599;52.210;21.046;2022-07-31T11:43:50;18.50;99.90
11091;DHT22;5599;52.210;21.046;2022-07-31T11:46:24;18.60;99.90
11091;DHT22;5599;52.210;21.046;2022-07-31T11:48:55;18.70;99.90
11091;DHT22;5599;52.210;21.046;2022-07-31T11:51:26;18.70;99.90
11091;DHT22;5599;52.210;21.046;2022-07-31T11:53:55;18.80;99.90
11091;DHT22;5599;52.210;21.046;2022-07-31T11:56:35;18.80;99.90
11091;DHT22;5599;52.210;21.046;2022-07-31T11:59:34;18.70;99.90
11091;DHT22;5599;52.210;21.046;2022-07-31T12:02:13;18.80;99.90
11091;DHT22;5599;52.210;21.046;2022-07-31T12:04:44;18.90;99.90
11091;DHT22;5599;52.210;21.046;2022-07-31T12:07:13;18.70;99.90
11091;DHT22;5599;52.210;21.046;2022-07-31T12:09:42;18.50;99.90
11091;DHT22;5599;52.210;21.046;2022-07-31T12:12:29;18.50;99.90
11091;DHT22;5599;52.210;21.046;2022-07-31T12:14:59;18.50;99.90
11091;DHT22;5599;52.210;21.046;2022-07-31T12:17:28;18.50;99.90
11091;DHT22;5599;52.210;21.046;2022-07-31T12:20:07;18.50;99.90
11091;DHT22;5599;52.210;21.046;2022-07-31T12:22:36;18.50;99.90
11091;DHT22;5599;52.210;21.046;2022-07-31T12:25:06;18.50;99.90
11091;DHT22;5599;52.210;21.046;2022-07-31T12:27:39;18.50;99.90
11091;DHT22;5599;52.210;21.046;2022-07-31T12:30:15;18.50;99.90
11091;DHT22;5599;52.210;21.046;2022-07-31T12:32:45;18.50;99.90
11091;DHT22;5599;52.210;21.046;2022-07-31T12:35:15;18.40;99.90
11091;DHT22;5599;52.210;21.046;2022-07-31T12:37:46;18.50;99.90
11091;DHT22;5599;52.210;21.046;2022-07-31T12:40:22;18.40;99.90
11091;DHT22;5599;52.210;21.046;2022-07-31T12:42:52;18.50;99.90
11091;DHT22;5599;52.210;21.046;2022-07-31T12:45:29;18.40;99.90
11091;DHT22;5599;52.210;21.046;2022-07-31T12:47:59;18.40;99.90
11091;DHT22;5599;52.210;21.046;2022-07-31T12:50:31;18.40;99.90
11091;DHT22;5599;52.210;21.046;2022-07-31T12:53:02;18.40;99.90
11091;DHT22;5599;52.210;21.046;2022-07-31T12:55:32;18.40;99.90
11091;DHT22;5599;52.210;21.046;2022-07-31T12:58:02;18.40;99.90
11091;DHT22;5599;52.210;21.046;2022-07-31T13:00:31;18.40;99.90
11091;DHT22;5599;52.210;21.046;2022-07-31T13:03:06;18.40;99.90
11091;DHT22;5599;52.210;21.046;2022-07-31T13:05:36;18.30;99.90
11091;DHT22;5599;52.210;21.046;2022-07-31T13:08:06;18.30;99.90
11091;DHT22;5599;52.210;21.046;2022-07-31T13:10:35;18.20;99.90
11091;DHT22;5599;52.210;21.046;2022-07-31T13:13:04;18.20;99.90
11091;DHT22;5599;52.210;21.046;2022-07-31T13:15:34;18.30;99.90
11091;DHT22;5599;52.210;21.046;2022-07-31T13:18:04;18.20;99.90
11091;DHT22;5599;52.210;21.046;2022-07-31T13:20:33;18.30;99.90
11091;DHT22;5599;52.210;21.046;2022-07-31T13:23:05;18.30;99.90
11091;DHT22;5599;52.210;21.046;2022-07-31T13:25:34;18.30;99.90
11091;DHT22;5599;52.210;21.046;2022-07-31T13:28:04;18.40;99.90
11091;DHT22;5599;52.210;21.046;2022-07-31T13:30:33;18.30;99.90
11091;DHT22;5599;52.210;21.046;2022-07-31T13:33:03;18.30;99.90
11091;DHT22;5599;52.210;21.046;2022-07-31T13:35:33;18.30;99.90
11091;DHT22;5599;52.210;21.046;2022-07-31T13:38:04;18.30;99.90
11091;DHT22;5599;52.210;21.046;2022-07-31T13:40:33;18.30;99.90
11091;DHT22;5599;52.210;21.046;2022-07-31T13:43:20;18.40;99.90
11091;DHT22;5599;52.210;21.046;2022-07-31T13:45:49;18.40;99.90
11091;DHT22;5599;52.210;21.046;2022-07-31T13:48:18;18.40;99.90
11091;DHT22;5599;52.210;21.046;2022-07-31T13:50:47;18.40;99.90
11091;DHT22;5599;52.210;21.046;2022-07-31T13:53:18;18.30;99.90
11091;DHT22;5599;52.210;21.046;2022-07-31T13:55:47;18.40;99.90
11091;DHT22;5599;52.210;21.046;2022-07-31T13:58:16;18.40;99.90
11091;DHT22;5599;52.210;21.046;2022-07-31T14:00:46;18.50;99.90
11091;DHT22;5599;52.210;21.046;2022-07-31T14:03:15;18.50;99.90
11091;DHT22;5599;52.210;21.046;2022-07-31T14:05:47;18.50;99.90
11091;DHT22;5599;52.210;21.046;2022-07-31T14:08:19;18.40;99.90
11091;DHT22;5599;52.210;21.046;2022-07-31T14:11:08;18.30;99.90
11091;DHT22;5599;52.210;21.046;2022-07-31T14:13:41;18.40;99.90
11091;DHT22;5599;52.210;21.046;2022-07-31T14:16:10;18.30;99.90
11091;DHT22;5599;52.210;21.046;2022-07-31T14:18:40;18.30;99.90
11091;DHT22;5599;52.210;21.046;2022-07-31T14:21:09;18.20;99.90
11091;DHT22;5599;52.210;21.046;2022-07-31T14:23:44;18.20;99.90
11091;DHT22;5599;52.210;21.046;2022-07-31T14:26:13;18.20;99.90
11091;DHT22;5599;52.210;21.046;2022-07-31T14:28:42;18.10;99.90
11091;DHT22;5599;52.210;21.046;2022-07-31T14:31:13;18.10;99.90
11091;DHT22;5599;52.210;21.046;2022-07-31T14:33:42;18.10;99.90
11091;DHT22;5599;52.210;21.046;2022-07-31T14:36:11;18.10;99.90
11091;DHT22;5599;52.210;21.046;2022-07-31T14:38:41;18.10;99.90
11091;DHT22;5599;52.210;21.046;2022-07-31T14:41:12;18.00;99.90
11091;DHT22;5599;52.210;21.046;2022-07-31T14:43:41;18.00;99.90
11091;DHT22;5599;52.210;21.046;2022-07-31T14:46:10;18.00;99.90
11091;DHT22;5599;52.210;21.046;2022-07-31T14:48:39;18.00;99.90
11091;DHT22;5599;52.210;21.046;2022-07-31T14:51:11;18.10;99.90
11091;DHT22;5599;52.210;21.046;2022-07-31T14:53:44;18.20;99.90
11091;DHT22;5599;52.210;21.046;2022-07-31T14:56:14;18.20;99.90
11091;DHT22;5599;52.210;21.046;2022-07-31T14:59:03;18.40;99.90
11091;DHT22;5599;52.210;21.046;2022-07-31T15:01:33;18.30;99.90
11091;DHT22;5599;52.210;21.046;2022-07-31T15:04:02;18.30;99.90
11091;DHT22;5599;52.210;21.046;2022-07-31T15:06:31;18.30;99.90
11091;DHT22;5599;52.210;21.046;2022-07-31T15:09:20;18.30;99.90
11091;DHT22;5599;52.210;21.046;2022-07-31T15:11:51;18.30;99.90
11091;DHT22;5599;52.210;21.046;2022-07-31T15:14:28;18.30;99.90
11091;DHT22;5599;52.210;21.046;2022-07-31T15:16:57;18.30;99.90
11091;DHT22;5599;52.210;21.046;2022-07-31T15:19:27;18.20;99.90
11091;DHT22;5599;52.210;21.046;2022-07-31T15:21:56;18.30;99.90
11091;DHT22;5599;52.210;21.046;2022-07-31T15:24:43;18.20;99.90
11091;DHT22;5599;52.210;21.046;2022-07-31T15:27:17;18.30;99.90
11091;DHT22;5599;52.210;21.046;2022-07-31T15:29:48;18.20;99.90
11091;DHT22;5599;52.210;21.046;2022-07-31T15:32:34;18.20;99.90
11091;DHT22;5599;52.210;21.046;2022-07-31T15:35:05;18.20;99.90
11091;DHT22;5599;52.210;21.046;2022-07-31T15:37:36;18.30;99.90
11091;DHT22;5599;52.210;21.046;2022-07-31T15:40:08;18.20;99.90
11091;DHT22;5599;52.210;21.046;2022-07-31T15:42:40;18.20;99.90
11091;DHT22;5599;52.210;21.046;2022-07-31T15:45:11;18.20;99.90
11091;DHT22;5599;52.210;21.046;2022-07-31T15:47:41;18.30;99.90
11091;DHT22;5599;52.210;21.046;2022-07-31T15:50:12;18.30;99.90
11091;DHT22;5599;52.210;21.046;2022-07-31T15:52:42;18.30;99.90
11091;DHT22;5599;52.210;21.046;2022-07-31T15:55:11;18.40;99.90
11091;DHT22;5599;52.210;21.046;2022-07-31T15:57:42;18.30;99.90
11091;DHT22;5599;52.210;21.046;2022-07-31T16:00:11;18.20;99.90
11091;DHT22;5599;52.210;21.046;2022-07-31T16:02:42;18.10;99.90
11091;DHT22;5599;52.210;21.046;2022-07-31T16:05:12;18.10;99.90
11091;DHT22;5599;52.210;21.046;2022-07-31T16:08:05;18.10;99.90
11091;DHT22;5599;52.210;21.046;2022-07-31T16:10:55;18.00;99.90
11091;DHT22;5599;52.210;21.046;2022-07-31T16:13:29;18.00;99.90
11091;DHT22;5599;52.210;21.046;2022-07-31T16:16:04;17.90;99.90
11091;DHT22;5599;52.210;21.046;2022-07-31T16:18:38;17.90;99.90
11091;DHT22;5599;52.210;21.046;2022-07-31T16:21:10;17.90;99.90